リヤド の空港の天気 - METARとTAF

キング・ハーリド国際空港(リヤド) ( OERK / RUH ) - サウジアラビア リヤド
飛行場実況気象(Metar)
観測時間01/24 03:00 AST (01/24 00:00 UTC)
風向・風速西北西 3m/s
視程10km以上
天気現象
なし
気温7℃
湿度53%
気圧1022hPa
METAROERK 240000Z 29006KT CAVOK 07/M02 Q1022 NOSIG
過去の天気等 Google飛行場航空写真 Wunderground天気予報

過去48時間のMETAR

飛行場予報(TAF)
発表時間: 1/24 02:00 AST (1/23 23:00 UTC)
予報対象時間: 24日3時 AST ~ 25日9時 AST
風向・風速不定 2m/s
視程10km以上
なし
24日13時 AST ~ 24日15時 AST に徐々に
風向・風速南 6m/s
TAF OERK 232300Z 2400/2506 VRB03KT CAVOK
BECMG 2410/2412 18012KT